Time;durP1;ratioP1;P1;durP2;ratioP2;P2;SDS_P1;SDS_P2;PMS_P1;PMS_P2;Temp;Humidity;BMP_temperature;BMP_pressure;BME280_temperature;BME280_humidity;BME280_pressure;Samples;Min_cycle;Max_cycle;Signal;HPM_P1;HPM_P2
2022/10/02 00:02:47;;;;;;;13.48;6.90;;;;;;;6.49;87.44;100502.50;10460662;28;20440;-73
2022/10/02 00:08:13;;;;;;;16.77;7.50;;;;;;;6.48;87.91;100500.03;10443412;28;20060;-73
2022/10/02 00:13:22;;;;;;;14.57;7.10;;;;;;;6.56;87.83;100484.00;10421450;28;20042;-73
2022/10/02 00:18:34;;;;;;;15.23;6.78;;;;;;;6.42;87.99;100484.69;10477574;28;20049;-73
2022/10/02 00:23:42;;;;;;;13.13;7.07;;;;;;;6.45;87.50;100478.75;10446999;28;20053;-73
2022/10/02 00:29:12;;;;;;;14.48;7.45;;;;;;;6.40;87.36;100470.50;10472720;28;20399;-73
2022/10/02 00:34:55;;;;;;;14.55;7.45;;;;;;;6.44;88.39;100491.53;10427609;28;20038;-73
2022/10/02 00:40:23;;;;;;;15.38;7.53;;;;;;;6.35;87.32;100485.72;10471732;28;20525;-73
2022/10/02 00:45:47;;;;;;;11.68;6.57;;;;;;;6.26;87.38;100491.91;10484923;28;20407;-73
2022/10/02 00:50:56;;;;;;;13.85;7.35;;;;;;;6.35;87.69;100482.16;10457125;28;20059;-73
2022/10/02 00:56:11;;;;;;;14.50;7.28;;;;;;;6.28;88.59;100484.28;10443496;28;20037;-73
2022/10/02 01:01:29;;;;;;;14.38;7.68;;;;;;;6.25;88.76;100477.44;10477471;28;20187;-73
2022/10/02 01:06:56;;;;;;;16.20;7.80;;;;;;;6.21;88.35;100483.66;10464941;28;20049;-73
2022/10/02 01:11:59;;;;;;;16.42;8.20;;;;;;;6.14;88.31;100478.41;10430572;28;20041;-73
2022/10/02 01:17:02;;;;;;;14.75;7.90;;;;;;;6.16;88.41;100473.53;10429914;28;20041;-73
2022/10/02 01:22:14;;;;;;;13.73;7.20;;;;;;;6.10;89.40;100488.19;10475905;28;20056;-73
2022/10/02 01:27:17;;;;;;;18.08;8.50;;;;;;;6.18;89.09;100486.88;10462514;28;20435;-73
2022/10/02 01:32:19;;;;;;;13.43;6.88;;;;;;;6.09;89.16;100485.72;10417683;28;20045;-73
2022/10/02 01:37:27;;;;;;;16.88;7.72;;;;;;;6.15;89.80;100481.97;10449862;28;20052;-73
2022/10/02 01:42:30;;;;;;;15.55;7.75;;;;;;;6.17;89.46;100483.34;10460812;28;20044;-73
2022/10/02 01:47:41;;;;;;;16.95;7.30;;;;;;;6.16;90.13;100481.69;10454355;28;20061;-73
2022/10/02 01:53:04;;;;;;;19.83;7.55;;;;;;;6.16;90.03;100472.72;10460841;28;20388;-73
2022/10/02 01:58:37;;;;;;;16.50;6.75;;;;;;;6.23;89.59;100476.84;10457307;28;20041;-73
2022/10/02 02:04:10;;;;;;;13.02;6.43;;;;;;;6.23;89.84;100473.31;10435232;28;20056;-73
2022/10/02 02:09:21;;;;;;;12.10;6.28;;;;;;;6.18;89.73;100468.63;10449651;28;20055;-73
2022/10/02 02:14:29;;;;;;;12.15;6.85;;;;;;;6.22;89.68;100472.50;10462034;28;20037;-73
2022/10/02 02:19:46;;;;;;;15.50;6.70;;;;;;;6.19;89.73;100478.47;10469732;28;20041;-73
2022/10/02 02:25:11;;;;;;;14.93;6.43;;;;;;;6.32;89.78;100479.97;10436011;28;20047;-73
2022/10/02 02:30:14;;;;;;;12.95;6.18;;;;;;;6.31;89.68;100481.03;10449543;28;20049;-73
2022/10/02 02:35:22;;;;;;;12.98;7.00;;;;;;;6.34;90.06;100484.06;10462449;28;20419;-73
2022/10/02 02:40:28;;;;;;;9.90;5.72;;;;;;;6.37;89.69;100477.28;10438722;28;20056;-73
2022/10/02 02:45:35;;;;;;;12.13;6.03;;;;;;;6.23;89.10;100476.03;10461993;28;20048;-73
2022/10/02 02:50:42;;;;;;;11.27;5.32;;;;;;;6.10;89.80;100482.72;10481482;28;20041;-73
2022/10/02 02:55:48;;;;;;;13.82;5.55;;;;;;;5.82;89.73;100491.06;10477507;28;20041;-72
2022/10/02 03:00:50;;;;;;;11.15;4.93;;;;;;;5.69;89.17;100493.09;10443766;28;20411;-72
2022/10/02 03:06:06;;;;;;;13.73;4.65;;;;;;;5.70;89.37;100491.19;10460957;28;20411;-72
2022/10/02 03:11:08;;;;;;;8.82;4.35;;;;;;;5.53;89.59;100498.56;10444348;28;20040;-72
2022/10/02 03:16:23;;;;;;;8.68;4.50;;;;;;;5.36;89.81;100498.59;10463763;27;20041;-73
2022/10/02 03:21:27;;;;;;;8.48;4.22;;;;;;;5.33;89.75;100493.66;10465265;28;20101;-73
2022/10/02 03:26:36;;;;;;;7.70;4.65;;;;;;;5.10;90.17;100489.25;10541732;27;20494;-72
2022/10/02 03:31:39;;;;;;;8.98;3.97;;;;;;;5.22;89.46;100486.44;10464869;28;20040;-72
2022/10/02 03:36:41;;;;;;;6.72;4.32;;;;;;;5.33;89.60;100488.22;10445829;28;20056;-73
2022/10/02 03:41:44;;;;;;;6.57;3.60;;;;;;;5.30;89.68;100489.56;10444047;28;20044;-73
2022/10/02 03:46:46;;;;;;;8.07;4.28;;;;;;;5.12;89.91;100493.38;10469644;28;20076;-73
2022/10/02 03:51:49;;;;;;;6.25;3.38;;;;;;;4.91;90.00;100496.03;10456621;28;20040;-72
2022/10/02 03:56:56;;;;;;;6.72;3.50;;;;;;;4.75;89.23;100497.66;10428350;28;20433;-73
2022/10/02 04:02:02;;;;;;;7.28;3.92;;;;;;;4.68;90.40;100495.09;10432662;28;20041;-74
2022/10/02 04:07:06;;;;;;;9.65;3.80;;;;;;;4.66;89.75;100486.34;10441695;28;20529;-73
2022/10/02 04:12:20;;;;;;;6.10;3.22;;;;;;;4.44;89.87;100482.72;10485976;28;20041;-73
2022/10/02 04:17:42;;;;;;;6.00;2.83;;;;;;;4.46;90.11;100492.28;10436671;28;20053;-73
2022/10/02 04:22:54;;;;;;;6.00;2.85;;;;;;;4.23;90.30;100500.53;10437514;28;20060;-73
2022/10/02 04:28:10;;;;;;;2.45;1.77;;;;;;;4.08;90.34;100495.63;10422620;28;20072;-73
2022/10/02 04:33:17;;;;;;;5.07;3.28;;;;;;;3.92;90.72;100493.69;10429586;28;20506;-73
2022/10/02 04:38:42;;;;;;;5.05;2.92;;;;;;;3.85;90.67;100488.41;10460602;28;20415;-73
2022/10/02 04:44:22;;;;;;;5.30;3.13;;;;;;;3.71;91.40;100495.16;10465090;28;20540;-73
2022/10/02 04:49:44;;;;;;;5.15;3.25;;;;;;;3.63;91.90;100501.78;10461487;28;20387;-73
2022/10/02 04:55:11;;;;;;;3.30;2.20;;;;;;;3.64;91.90;100510.72;10454420;28;20044;-73
2022/10/02 05:00:17;;;;;;;2.60;1.90;;;;;;;3.89;91.76;100511.28;10463231;27;20518;-76
2022/10/02 05:05:32;;;;;;;2.38;2.03;;;;;;;3.87;93.00;100507.97;10500855;28;20049;-77
2022/10/02 05:10:43;;;;;;;1.90;1.52;;;;;;;3.93;92.95;100503.47;10432884;28;20057;-77
2022/10/02 05:16:06;;;;;;;3.33;1.90;;;;;;;3.97;93.53;100512.78;10477696;28;20048;-76
2022/10/02 05:21:22;;;;;;;4.28;1.50;;;;;;;3.92;93.30;100520.84;10447295;28;20056;-76
2022/10/02 05:26:30;;;;;;;2.65;1.60;;;;;;;3.87;93.47;100507.16;10443894;28;20049;-76
2022/10/02 05:31:50;;;;;;;2.78;1.73;;;;;;;4.03;93.13;100513.72;10455232;28;20442;-76
2022/10/02 05:37:14;;;;;;;2.20;1.52;;;;;;;4.21;93.01;100503.50;10483361;28;20045;-76
2022/10/02 05:42:32;;;;;;;3.08;1.98;;;;;;;4.30;94.04;100506.63;10448267;28;20427;-76
2022/10/02 05:47:37;;;;;;;3.15;1.98;;;;;;;4.31;93.46;100505.56;10503787;28;20568;-76
2022/10/02 05:53:04;;;;;;;3.35;2.10;;;;;;;4.32;93.73;100503.69;10412690;28;20042;-76
2022/10/02 05:58:12;;;;;;;4.20;1.90;;;;;;;4.25;93.37;100498.41;10426398;28;20052;-76
2022/10/02 06:03:22;;;;;;;2.50;1.02;;;;;;;4.28;93.79;100503.34;10458647;28;20033;-76
2022/10/02 06:08:37;;;;;;;4.00;1.60;;;;;;;4.26;94.12;100502.78;10465316;28;20049;-77
2022/10/02 06:13:54;;;;;;;2.42;1.67;;;;;;;4.41;93.89;100497.63;10466426;28;20045;-76
2022/10/02 06:19:03;;;;;;;3.55;1.80;;;;;;;4.72;93.29;100503.59;10443957;28;20513;-77
2022/10/02 06:24:11;;;;;;;2.72;1.52;;;;;;;4.89;93.56;100499.00;10589188;28;20040;-76
2022/10/02 06:29:21;;;;;;;3.88;2.30;;;;;;;5.11;93.97;100497.16;10580964;28;20052;-77
2022/10/02 06:34:24;;;;;;;3.65;2.10;;;;;;;5.34;93.91;100492.59;10615115;28;20050;-76
2022/10/02 06:40:08;;;;;;;4.30;1.95;;;;;;;5.40;93.28;100489.72;10598507;28;20056;-76
2022/10/02 06:45:22;;;;;;;4.88;2.75;;;;;;;5.60;92.01;100488.34;10585082;28;20052;-77
2022/10/02 06:50:27;;;;;;;4.57;2.28;;;;;;;6.32;91.49;100502.59;10612749;28;20060;-76
2022/10/02 06:55:40;;;;;;;4.35;2.53;;;;;;;7.01;88.21;100487.41;10612795;28;20050;-76
2022/10/02 07:00:47;;;;;;;4.40;2.42;;;;;;;6.85;86.11;100500.91;10611230;27;20040;-76
2022/10/02 07:06:23;;;;;;;3.92;2.38;;;;;;;6.88;85.10;100500.38;10609263;28;20036;-77
2022/10/02 07:11:49;;;;;;;3.63;2.55;;;;;;;7.15;83.87;100489.41;10584030;28;20047;-76
2022/10/02 07:17:04;;;;;;;4.65;2.70;;;;;;;8.12;82.32;100489.91;10573832;28;20040;-77
2022/10/02 07:22:20;;;;;;;5.13;2.97;;;;;;;8.28;80.01;100496.22;10513105;28;20051;-77
2022/10/02 07:27:31;;;;;;;3.28;2.58;;;;;;;8.77;78.28;100491.16;10426428;28;20049;-77
2022/10/02 07:32:48;;;;;;;4.65;3.03;;;;;;;9.20;76.86;100503.47;10449651;28;20462;-77
2022/10/02 07:38:02;;;;;;;4.68;3.00;;;;;;;9.17;75.38;100511.41;10477517;28;20060;-77
2022/10/02 07:43:23;;;;;;;8.38;3.25;;;;;;;9.04;75.41;100508.13;10463347;28;20076;-77
2022/10/02 07:49:14;;;;;;;3.47;2.63;;;;;;;9.21;75.48;100502.38;10456952;28;20042;-77
2022/10/02 07:54:42;;;;;;;5.57;3.55;;;;;;;9.97;74.19;100506.84;10407992;28;20053;-77
2022/10/02 07:59:45;;;;;;;4.55;3.05;;;;;;;10.56;72.27;100509.56;10459908;28;20049;-77
2022/10/02 08:05:11;;;;;;;5.50;3.67;;;;;;;11.05;70.11;100503.16;10462959;28;20510;-76
2022/10/02 08:10:16;;;;;;;6.03;3.55;;;;;;;11.09;68.33;100500.66;10461635;28;20049;-77
2022/10/02 08:15:19;;;;;;;5.63;3.60;;;;;;;11.76;66.73;100491.47;10454051;28;20090;-77
2022/10/02 08:20:41;;;;;;;5.18;3.60;;;;;;;12.32;66.19;100499.06;10428898;28;20426;-77
2022/10/02 08:25:56;;;;;;;5.18;3.60;;;;;;;12.97;63.67;100499.16;10477438;28;20047;-77
2022/10/02 08:30:59;;;;;;;3.97;3.33;;;;;;;13.22;62.26;100499.91;10478611;28;20056;-77
2022/10/02 08:36:27;;;;;;;6.97;4.55;;;;;;;13.55;61.05;100497.91;10494670;28;20446;-77
2022/10/02 08:42:12;;;;;;;8.02;4.65;;;;;;;13.53;59.45;100505.66;10441760;27;20040;-77
2022/10/02 08:47:36;;;;;;;8.20;5.90;;;;;;;12.91;60.79;100499.56;10450749;28;20048;-77
2022/10/02 08:52:53;;;;;;;9.10;5.20;;;;;;;12.11;63.57;100505.09;10483123;27;20053;-77
2022/10/02 08:58:32;;;;;;;10.25;6.25;;;;;;;11.13;64.69;100510.81;10471538;27;20037;-77
2022/10/02 09:03:57;;;;;;;8.43;5.07;;;;;;;10.19;67.73;100522.91;10451299;28;20495;-77
2022/10/02 09:09:35;;;;;;;7.90;5.47;;;;;;;9.57;69.64;100516.00;10485278;28;20041;-77
2022/10/02 09:14:50;;;;;;;;;;;;;;;9.27;70.79;100517.69;10467502;28;20056;-77
2022/10/02 09:20:31;;;;;;;9.30;5.38;;;;;;;8.85;72.81;100506.19;10430826;28;20329;-77
2022/10/02 09:25:48;;;;;;;7.30;4.90;;;;;;;8.62;74.18;100504.81;10460068;28;20053;-77
2022/10/02 09:31:18;;;;;;;6.55;4.80;;;;;;;8.51;74.38;100500.44;10457125;28;20402;-77
2022/10/02 09:36:51;;;;;;;7.10;4.78;;;;;;;8.39;75.29;100492.47;10491072;28;20045;-77
2022/10/02 09:42:18;;;;;;;;;;;;;;;8.47;76.15;100486.47;10473217;28;20052;-77
2022/10/02 09:48:20;;;;;;;6.03;4.60;;;;;;;8.62;75.98;100478.28;10485824;28;19928;-77
2022/10/02 09:54:01;;;;;;;10.02;4.40;;;;;;;8.68;76.28;100484.59;10481958;27;20028;-77
2022/10/02 09:59:16;;;;;;;8.43;5.00;;;;;;;8.82;75.55;100490.31;10478920;27;20376;-77
2022/10/02 10:04:46;;;;;;;6.50;4.13;;;;;;;8.81;75.88;100481.31;10497339;28;20056;-77
2022/10/02 10:10:18;;;;;;;9.95;4.10;;;;;;;8.88;76.14;100479.13;10472901;28;20048;-77
2022/10/02 10:15:52;;;;;;;7.75;4.07;;;;;;;8.77;75.87;100482.94;10512200;27;20040;-78
2022/10/02 10:21:57;;;;;;;6.47;4.00;;;;;;;8.77;76.93;100478.28;10516835;28;20056;-78
2022/10/02 10:27:29;;;;;;;11.85;5.07;;;;;;;8.88;77.02;100483.78;10524686;28;20052;-78
2022/10/02 10:32:55;;;;;;;8.02;4.50;;;;;;;9.08;76.28;100478.28;10504575;28;20059;-78
2022/10/02 10:43:37;;;;;;;11.02;5.20;;;;;;;9.09;76.72;100487.31;10513367;27;20049;-78
2022/10/02 10:49:14;;;;;;;8.02;4.97;;;;;;;9.12;76.77;100489.50;10483720;28;20036;-78
2022/10/02 10:54:47;;;;;;;5.50;4.07;;;;;;;9.11;76.45;100477.75;10484527;28;20044;-78
2022/10/02 11:00:02;;;;;;;8.85;4.00;;;;;;;9.09;77.60;100468.16;10492275;27;20051;-78
2022/10/02 11:05:05;;;;;;;7.45;4.57;;;;;;;9.12;78.03;100470.34;10469231;28;20041;-78
2022/10/02 11:10:32;;;;;;;8.30;4.28;;;;;;;9.09;78.11;100470.91;10479142;27;20045;-78
2022/10/02 11:15:55;;;;;;;6.55;4.20;;;;;;;9.04;77.92;100471.75;10481101;27;20049;-78
2022/10/02 11:21:21;;;;;;;5.47;3.72;;;;;;;9.14;78.28;100468.97;10489639;27;20049;-79
2022/10/02 11:26:41;;;;;;;5.03;3.55;;;;;;;9.20;78.20;100467.03;10493180;28;20472;-78
2022/10/02 11:32:43;;;;;;;5.18;3.45;;;;;;;9.21;78.75;100455.84;10455935;28;20037;-79
2022/10/02 11:38:11;;;;;;;5.55;3.30;;;;;;;9.26;77.88;100453.09;10432787;28;20045;-78
2022/10/02 11:43:31;;;;;;;5.13;3.78;;;;;;;9.33;78.08;100448.13;10477909;27;20052;-77
2022/10/02 11:48:42;;;;;;;6.20;4.55;;;;;;;9.35;77.84;100448.66;10468930;28;20067;-78
2022/10/02 11:54:03;;;;;;;5.28;3.88;;;;;;;9.30;78.36;100443.22;10464698;28;20036;-77
2022/10/02 11:59:51;;;;;;;7.15;4.32;;;;;;;9.34;79.19;100448.94;10465292;28;20041;-77
2022/10/02 12:05:16;;;;;;;5.97;3.85;;;;;;;9.39;79.11;100439.91;10445715;28;20051;-77
2022/10/02 12:10:35;;;;;;;6.07;3.80;;;;;;;9.34;79.03;100438.81;10423962;28;20452;-77
2022/10/02 12:15:59;;;;;;;4.30;2.88;;;;;;;9.35;78.47;100432.22;10434723;28;20049;-78
2022/10/02 12:27:01;;;;;;;5.20;2.72;;;;;;;9.31;78.33;100444.84;10464443;28;20067;-77
2022/10/02 12:32:37;;;;;;;4.63;2.92;;;;;;;9.33;79.19;100437.16;10463196;28;20040;-78
2022/10/02 12:37:44;;;;;;;4.75;2.90;;;;;;;9.39;78.99;100437.19;10458167;28;20045;-78
2022/10/02 12:43:15;;;;;;;3.15;2.45;;;;;;;9.45;78.56;100436.06;10471874;28;20396;-78
2022/10/02 12:48:29;;;;;;;7.18;2.90;;;;;;;9.54;78.22;100426.97;10477083;27;20071;-79
2022/10/02 12:54:08;;;;;;;3.67;2.97;;;;;;;9.61;77.99;100427.50;10479288;28;20433;-79
2022/10/02 12:59:25;;;;;;;4.47;2.85;;;;;;;9.58;76.28;100432.72;10634874;27;20035;-79
2022/10/02 13:05:05;;;;;;;6.22;2.92;;;;;;;9.55;75.46;100427.81;10528601;27;20033;-78
2022/10/02 13:10:24;;;;;;;6.45;2.85;;;;;;;9.60;76.04;100428.59;10474769;28;20410;-78
2022/10/02 13:15:57;;;;;;;3.70;2.97;;;;;;;9.64;76.36;100446.13;10495674;28;20044;-79
2022/10/02 13:21:28;;;;;;;4.68;2.90;;;;;;;9.64;76.63;100442.56;10445318;28;20053;-79
2022/10/02 13:27:09;;;;;;;7.38;3.40;;;;;;;9.63;75.86;100430.78;10460559;28;20047;-79
2022/10/02 13:32:21;;;;;;;4.35;3.35;;;;;;;9.61;75.83;100434.91;10458758;28;20052;-78
2022/10/02 13:38:02;;;;;;;6.90;3.10;;;;;;;9.58;75.65;100438.22;10460086;28;20044;-78
2022/10/02 13:43:25;;;;;;;3.33;2.90;;;;;;;9.53;75.70;100446.44;10505797;27;20037;-78
2022/10/02 13:48:36;;;;;;;3.38;2.83;;;;;;;9.50;75.81;100444.25;10474888;27;20049;-78
2022/10/02 13:53:49;;;;;;;4.97;3.10;;;;;;;9.47;76.19;100439.34;10475666;27;20067;-78
2022/10/02 13:58:52;;;;;;;4.07;2.88;;;;;;;9.46;76.21;100438.50;10484517;28;20506;-78
2022/10/02 14:04:13;;;;;;;3.00;2.55;;;;;;;9.47;76.79;100451.09;10479929;28;20045;-78
2022/10/02 14:09:21;;;;;;;5.47;3.00;;;;;;;9.43;76.82;100446.47;10481970;28;20411;-78
2022/10/02 14:14:34;;;;;;;5.50;3.05;;;;;;;9.46;76.19;100454.94;10490989;27;20044;-78
2022/10/02 14:20:21;;;;;;;4.80;3.25;;;;;;;9.45;76.25;100456.03;10445870;28;20044;-79
2022/10/02 14:25:47;;;;;;;;;;;;;;;9.43;76.28;100458.25;10472132;27;20048;-77
2022/10/02 14:31:14;;;;;;;4.60;3.60;;;;;;;9.44;76.31;100454.41;10481140;28;19925;-78
2022/10/02 14:36:17;;;;;;;3.10;2.78;;;;;;;9.41;77.33;100462.38;10474556;27;20409;-78
2022/10/02 14:41:24;;;;;;;4.32;3.28;;;;;;;9.41;76.32;100460.44;10521755;27;20430;-79
2022/10/02 14:46:29;;;;;;;4.95;3.15;;;;;;;9.38;77.10;100460.19;10491528;28;20036;-78
2022/10/02 14:52:14;;;;;;;6.63;3.60;;;;;;;9.36;77.02;100465.91;10481065;27;20041;-79
2022/10/02 14:57:53;;;;;;;6.10;3.15;;;;;;;9.34;77.34;100465.38;10491371;28;20037;-78
2022/10/02 15:03:42;;;;;;;5.47;3.80;;;;;;;9.32;77.31;100479.34;10494228;27;20045;-78
2022/10/02 15:08:47;;;;;;;6.10;4.05;;;;;;;9.25;78.25;100484.31;10501006;28;20056;-78
2022/10/02 15:13:56;;;;;;;7.45;4.22;;;;;;;9.17;78.67;100486.75;10483467;27;20041;-80
2022/10/02 15:19:20;;;;;;;5.80;3.92;;;;;;;9.05;78.41;100489.81;10488364;28;20044;-77
2022/10/02 15:24:31;;;;;;;4.80;3.17;;;;;;;8.99;78.97;100496.34;10450723;28;20049;-80
2022/10/02 15:30:17;;;;;;;6.95;3.63;;;;;;;8.91;79.83;100489.53;10488894;27;20052;-76
2022/10/02 15:35:46;;;;;;;5.93;3.92;;;;;;;8.81;81.13;100480.47;10471323;28;20060;-77
2022/10/02 15:41:10;;;;;;;7.15;3.58;;;;;;;8.70;80.96;100469.56;10466242;28;20043;-77
2022/10/02 15:46:19;;;;;;;5.50;4.40;;;;;;;8.61;80.75;100473.91;10483872;28;20048;-77
2022/10/02 15:51:54;;;;;;;8.07;4.03;;;;;;;8.50;82.12;100455.00;10483037;28;20056;-75
2022/10/02 15:57:06;;;;;;;8.25;4.88;;;;;;;8.42;81.69;100442.72;10479374;28;20530;-75
2022/10/02 16:02:30;;;;;;;7.15;4.38;;;;;;;8.32;81.92;100454.41;10464324;28;20045;-77
2022/10/02 16:08:18;;;;;;;9.70;5.43;;;;;;;8.21;83.56;100443.75;10487419;28;20049;-74
2022/10/02 16:13:39;;;;;;;7.15;4.28;;;;;;;8.10;84.38;100451.91;10534291;28;20432;-75
2022/10/02 16:19:20;;;;;;;9.23;4.22;;;;;;;8.03;84.26;100451.34;10467611;28;20522;-76
2022/10/02 16:25:02;;;;;;;7.97;4.43;;;;;;;7.94;85.53;100465.78;10468146;27;20064;-75
2022/10/02 16:30:14;;;;;;;9.77;5.30;;;;;;;7.80;85.77;100462.72;10520563;27;20044;-75
2022/10/02 16:35:35;;;;;;;8.63;4.45;;;;;;;7.69;87.67;100474.72;10463188;28;20045;-76
2022/10/02 16:40:56;;;;;;;6.63;4.03;;;;;;;7.57;87.83;100464.00;10476293;28;20045;-76
2022/10/02 16:46:29;;;;;;;8.32;4.40;;;;;;;7.46;88.24;100460.41;10460428;28;20040;-76
2022/10/02 16:51:34;;;;;;;7.40;5.40;;;;;;;7.36;89.71;100451.34;10474805;28;20045;-75
2022/10/02 16:56:39;;;;;;;8.07;4.20;;;;;;;7.34;90.32;100459.78;10477019;28;20566;-73
2022/10/02 17:01:56;;;;;;;7.38;4.95;;;;;;;7.34;89.98;100458.97;10470083;28;20048;-74
2022/10/02 17:07:24;;;;;;;6.20;4.40;;;;;;;7.36;90.90;100457.63;10457164;28;20049;-74
2022/10/02 17:12:32;;;;;;;;;;;;;;;7.34;90.79;100457.06;10478995;28;20467;-74
2022/10/02 17:18:12;;;;;;;10.38;4.68;;;;;;;7.33;90.65;100449.97;10484399;27;19927;-76
2022/10/02 17:23:35;;;;;;;8.25;5.30;;;;;;;7.28;90.77;100444.44;10489886;27;20525;-77
2022/10/02 17:28:49;;;;;;;8.60;4.75;;;;;;;7.24;91.20;100443.34;10484313;28;20051;-77
2022/10/02 17:33:55;;;;;;;10.80;5.57;;;;;;;7.22;92.09;100442.78;10482821;28;20045;-77
2022/10/02 17:39:35;;;;;;;10.00;5.03;;;;;;;7.15;92.20;100453.13;10459241;28;20033;-77
2022/10/02 17:45:14;;;;;;;9.77;4.85;;;;;;;7.08;92.77;100444.31;10462422;28;20032;-78
2022/10/02 17:50:22;;;;;;;11.60;5.00;;;;;;;6.98;92.09;100439.63;10478787;27;20056;-78
2022/10/02 18:01:51;;;;;;;9.38;5.55;;;;;;;6.88;92.78;100467.66;10487296;27;20041;-77
2022/10/02 18:07:24;;;;;;;6.50;5.05;;;;;;;7.04;93.33;100465.03;10486672;27;20056;-78
2022/10/02 18:12:39;;;;;;;8.77;4.72;;;;;;;7.09;92.54;100473.25;10459606;27;20048;-77
2022/10/02 18:18:07;;;;;;;7.22;4.50;;;;;;;7.21;92.17;100471.97;10441108;28;20041;-77
2022/10/02 18:23:22;;;;;;;11.25;5.13;;;;;;;7.24;92.55;100465.19;10471524;28;20415;-77
2022/10/02 18:28:46;;;;;;;6.65;4.68;;;;;;;7.32;91.92;100461.16;10464090;28;20033;-79
2022/10/02 18:33:55;;;;;;;9.05;5.30;;;;;;;7.22;92.13;100464.63;10451420;28;20407;-83
2022/10/02 18:39:06;;;;;;;6.68;4.40;;;;;;;7.18;91.17;100455.31;10483732;28;20033;-77
2022/10/02 18:44:15;;;;;;;6.35;4.18;;;;;;;7.07;91.56;100459.06;10457825;28;20503;-81
2022/10/02 18:49:23;;;;;;;8.98;4.80;;;;;;;7.05;91.17;100451.13;10490344;28;20068;-83
2022/10/02 18:54:56;;;;;;;7.80;4.60;;;;;;;7.01;91.29;100460.13;10448371;28;20032;-81
2022/10/02 19:00:09;;;;;;;9.45;5.50;;;;;;;7.02;91.75;100470.75;10449660;27;20045;-84
2022/10/02 19:05:53;;;;;;;8.85;4.82;;;;;;;7.13;91.90;100471.66;10481173;28;20055;-79
2022/10/02 19:10:55;;;;;;;8.90;4.47;;;;;;;7.11;92.31;100476.53;10489301;27;20427;-73
2022/10/02 19:16:18;;;;;;;7.40;4.70;;;;;;;7.19;91.70;100474.16;10486799;27;20045;-73
2022/10/02 19:21:20;;;;;;;8.35;4.80;;;;;;;7.27;91.32;100475.56;10450962;28;20045;-74
2022/10/02 19:26:44;;;;;;;9.65;4.82;;;;;;;7.20;91.42;100464.88;10507782;27;20435;-76
2022/10/02 19:31:47;;;;;;;8.25;5.25;;;;;;;7.16;91.02;100468.41;10453093;28;20045;-77
2022/10/02 19:36:59;;;;;;;8.48;4.88;;;;;;;7.00;90.62;100459.28;10422637;28;20059;-77
2022/10/02 19:42:18;;;;;;;6.93;4.00;;;;;;;6.94;90.94;100461.16;10477143;28;20408;-77
2022/10/02 19:47:28;;;;;;;9.95;4.72;;;;;;;6.90;91.40;100464.66;10462274;28;20804;-77
2022/10/02 19:52:36;;;;;;;9.27;4.43;;;;;;;6.83;91.92;100470.34;10461802;27;20701;-77
2022/10/02 19:57:39;;;;;;;9.27;5.03;;;;;;;6.75;91.91;100470.81;10455584;28;20045;-78
2022/10/02 20:02:47;;;;;;;7.63;4.20;;;;;;;6.89;91.75;100452.94;10480661;28;20037;-75
2022/10/02 20:07:52;;;;;;;8.38;4.78;;;;;;;6.89;92.68;100458.38;10557604;27;20400;-77
2022/10/02 20:13:01;;;;;;;6.30;3.58;;;;;;;6.85;91.98;100461.91;10480913;27;20041;-76
2022/10/02 20:18:03;;;;;;;8.98;4.10;;;;;;;6.77;92.16;100457.75;10455903;28;20041;-78
2022/10/02 20:23:12;;;;;;;7.88;3.72;;;;;;;6.78;92.43;100455.84;10482643;28;20044;-75
2022/10/02 20:28:23;;;;;;;5.43;3.22;;;;;;;6.60;92.01;100455.16;10422702;28;20503;-77
2022/10/02 20:33:32;;;;;;;5.05;3.70;;;;;;;6.50;92.73;100459.69;10450372;28;20510;-75
2022/10/02 20:38:38;;;;;;;5.88;3.03;;;;;;;6.44;92.87;100456.09;10439031;28;20514;-75
2022/10/02 20:43:47;;;;;;;6.20;3.55;;;;;;;6.35;93.45;100454.91;10453164;28;20521;-75
2022/10/02 20:48:58;;;;;;;5.90;3.78;;;;;;;6.31;92.94;100459.25;10483069;28;20053;-76
2022/10/02 20:54:07;;;;;;;8.57;4.03;;;;;;;6.25;92.90;100466.56;10463378;28;20047;-77
2022/10/02 20:59:12;;;;;;;5.50;3.90;;;;;;;6.21;93.75;100465.41;10448760;28;20041;-76
2022/10/02 21:04:29;;;;;;;5.85;3.45;;;;;;;6.22;92.88;100469.75;10491479;28;20052;-77
2022/10/02 21:10:00;;;;;;;5.80;4.22;;;;;;;6.12;93.54;100475.13;10475266;28;20060;-76
2022/10/02 21:15:41;;;;;;;5.78;2.95;;;;;;;5.99;93.67;100461.91;10482407;28;20094;-77
2022/10/02 21:20:49;;;;;;;4.80;3.60;;;;;;;5.93;92.97;100473.81;10436070;28;20041;-82
2022/10/02 21:26:13;;;;;;;2.47;2.00;;;;;;;5.80;93.07;100469.53;10462855;28;20044;-77
2022/10/02 21:31:46;;;;;;;5.25;2.95;;;;;;;5.70;92.72;100472.94;10422926;28;20053;-74
2022/10/02 21:36:53;;;;;;;3.83;2.90;;;;;;;5.77;93.44;100469.22;10469084;28;20048;-76
2022/10/02 21:42:20;;;;;;;4.33;2.87;;;;;;;5.79;93.84;100475.25;10475175;28;20524;-74
2022/10/02 21:47:34;;;;;;;3.53;2.50;;;;;;;5.78;93.50;100460.00;10463479;28;20580;-83
2022/10/02 21:53:06;;;;;;;3.42;2.45;;;;;;;5.82;92.60;100464.66;10430695;28;20041;-83
2022/10/02 21:58:08;;;;;;;2.75;2.13;;;;;;;5.72;92.22;100468.06;10462644;28;20060;-81
2022/10/02 22:03:33;;;;;;;2.58;1.65;;;;;;;5.79;91.96;100472.53;10495926;27;20047;-82
2022/10/02 22:08:50;;;;;;;1.67;1.27;;;;;;;5.74;92.03;100471.38;10469944;27;20037;-76
2022/10/02 22:14:01;;;;;;;3.13;1.92;;;;;;;5.72;92.00;100465.34;10471799;28;20434;-78
2022/10/02 22:19:31;;;;;;;2.83;1.80;;;;;;;5.77;92.17;100466.50;10469877;27;20041;-81
2022/10/02 22:24:44;;;;;;;2.80;1.58;;;;;;;5.81;91.02;100470.38;10482881;28;20048;-81
2022/10/02 22:29:49;;;;;;;1.50;1.20;;;;;;;5.75;90.83;100477.66;10484783;28;20510;-80
2022/10/02 22:35:06;;;;;;;1.65;1.13;;;;;;;5.79;90.75;100481.50;10476556;28;20049;-79
2022/10/02 22:40:13;;;;;;;1.45;1.35;;;;;;;5.75;90.84;100485.81;10452487;28;20039;-80
2022/10/02 22:45:39;;;;;;;1.13;1.02;;;;;;;5.70;90.07;100489.28;10501283;28;20334;-81
2022/10/02 22:50:49;;;;;;;1.75;1.20;;;;;;;5.80;90.27;100499.50;10483678;28;20056;-81
2022/10/02 22:55:53;;;;;;;1.55;0.90;;;;;;;5.70;89.59;100502.06;10466796;28;20056;-81
2022/10/02 23:01:36;;;;;;;1.35;0.90;;;;;;;5.65;90.00;100491.94;10453944;28;20407;-81
2022/10/02 23:06:43;;;;;;;1.20;1.10;;;;;;;5.60;89.37;100485.63;10456093;28;22457;-81
2022/10/02 23:12:06;;;;;;;1.65;0.55;;;;;;;5.71;89.54;100490.09;10451606;28;20041;-81
2022/10/02 23:17:10;;;;;;;2.70;1.10;;;;;;;5.75;89.55;100486.66;10464445;27;20044;-80
2022/10/02 23:22:17;;;;;;;1.98;1.13;;;;;;;5.78;88.42;100470.88;10490704;27;20354;-79
2022/10/02 23:27:39;;;;;;;1.30;0.90;;;;;;;5.84;88.01;100472.56;10419846;28;20033;-79
2022/10/02 23:33:03;;;;;;;1.10;1.00;;;;;;;5.80;87.96;100469.53;10431936;28;20037;-78
2022/10/02 23:38:18;;;;;;;1.20;1.00;;;;;;;5.70;87.97;100467.50;10515825;27;20391;-78
2022/10/02 23:43:35;;;;;;;1.35;1.10;;;;;;;5.63;87.86;100458.72;10453827;28;20037;-77
2022/10/02 23:48:38;;;;;;;2.00;0.65;;;;;;;5.67;88.09;100451.69;10462536;28;20048;-77
2022/10/02 23:53:54;;;;;;;0.98;0.88;;;;;;;5.67;87.60;100443.50;10450311;28;20041;-78
2022/10/02 23:59:23;;;;;;;1.23;0.90;;;;;;;5.61;88.29;100438.28;10451210;28;20041;-78
